createdAt,value
2023-10-11T00:01:07.748Z,2.9
2023-10-11T00:02:22.040Z,3.1
2023-10-11T00:03:36.333Z,3.2
2023-10-11T00:04:50.625Z,3.4
2023-10-11T00:06:04.918Z,3.3
2023-10-11T00:07:19.211Z,2.8
2023-10-11T00:08:33.504Z,3.1
2023-10-11T00:09:47.797Z,3
2023-10-11T00:11:02.090Z,3.2
2023-10-11T00:12:16.382Z,3.2
2023-10-11T00:13:30.675Z,3.4
2023-10-11T00:14:44.967Z,3.4
2023-10-11T00:15:59.260Z,3.2
2023-10-11T00:17:12.568Z,3.2
2023-10-11T00:18:26.861Z,3.1
2023-10-11T00:19:41.154Z,3.1
2023-10-11T00:20:55.446Z,3.2
2023-10-11T00:22:09.739Z,3.4
2023-10-11T00:23:24.032Z,3.3
2023-10-11T00:24:38.324Z,3.1
2023-10-11T00:25:52.617Z,3.1
2023-10-11T00:27:06.909Z,3.2
2023-10-11T00:28:21.202Z,3.1
2023-10-11T00:29:35.494Z,3.3
2023-10-11T00:30:49.787Z,3.4
2023-10-11T00:32:04.080Z,3.4
2023-10-11T00:33:17.389Z,3.5
2023-10-11T00:34:31.681Z,3.4
2023-10-11T00:35:45.974Z,3.4
2023-10-11T00:37:00.266Z,3.4
2023-10-11T00:38:14.559Z,3.2
2023-10-11T00:39:28.851Z,3.1
2023-10-11T00:40:43.144Z,3
2023-10-11T00:41:57.436Z,3.2
2023-10-11T00:43:11.729Z,2.8
2023-10-11T00:44:26.022Z,3.4
2023-10-11T00:45:40.314Z,3.1
2023-10-11T00:46:54.607Z,3.4
2023-10-11T00:48:08.899Z,3.1
2023-10-11T00:49:22.208Z,3.5
2023-10-11T00:50:36.501Z,3.3
2023-10-11T00:51:50.793Z,3.3
2023-10-11T00:53:05.086Z,3.3
2023-10-11T00:54:19.379Z,3.8
2023-10-11T00:55:33.671Z,3.3
2023-10-11T00:56:47.964Z,3.2
2023-10-11T00:58:02.256Z,3.1
2023-10-11T00:59:16.549Z,3.2
2023-10-11T01:00:30.842Z,3.1
2023-10-11T01:01:45.134Z,3.4
2023-10-11T01:02:59.427Z,2.9
2023-10-11T01:04:13.720Z,3
2023-10-11T01:05:27.028Z,3
2023-10-11T01:06:41.321Z,3.5
2023-10-11T01:07:55.613Z,3
2023-10-11T01:09:09.906Z,3.1
2023-10-11T01:10:24.199Z,3.2
2023-10-11T01:11:38.491Z,3.4
2023-10-11T01:12:52.784Z,3.2
2023-10-11T01:14:07.076Z,3.6
2023-10-11T01:15:21.369Z,3.2
2023-10-11T01:16:35.662Z,3.3
2023-10-11T01:17:49.954Z,3.1
2023-10-11T01:19:04.247Z,3
2023-10-11T01:20:18.539Z,3.1
2023-10-11T01:21:31.848Z,3
2023-10-11T01:22:46.141Z,3.1
2023-10-11T01:24:00.433Z,3
2023-10-11T01:25:14.726Z,3.1
2023-10-11T01:26:29.019Z,3.2
2023-10-11T01:27:43.311Z,3
2023-10-11T01:28:57.605Z,3.2
2023-10-11T01:30:11.897Z,3
2023-10-11T01:31:26.190Z,3.1
2023-10-11T01:32:40.482Z,3
2023-10-11T01:33:54.775Z,3.4
2023-10-11T01:35:09.068Z,3.2
2023-10-11T01:36:23.361Z,3.2
2023-10-11T01:37:36.669Z,3.4
2023-10-11T01:38:50.962Z,3.1
2023-10-11T01:40:05.254Z,2.9
2023-10-11T01:41:19.547Z,3.1
2023-10-11T01:42:33.839Z,3.1
2023-10-11T01:43:48.132Z,3
2023-10-11T01:45:02.395Z,3
2023-10-11T01:46:16.717Z,4.2
2023-10-11T01:47:30.987Z,3.3
2023-10-11T01:48:45.303Z,3.2
2023-10-11T01:49:59.595Z,3
2023-10-11T01:51:13.888Z,4.3
2023-10-11T01:52:28.180Z,3.3
2023-10-11T01:53:41.489Z,3.2
2023-10-11T01:54:55.781Z,3.1
2023-10-11T01:56:10.075Z,3.3
2023-10-11T01:57:24.368Z,3.4
2023-10-11T01:58:38.661Z,3.5
2023-10-11T01:59:52.953Z,3.1
2023-10-11T02:01:07.246Z,3.3
2023-10-11T02:02:21.538Z,3.1
2023-10-11T02:03:35.831Z,3.2
2023-10-11T02:04:50.123Z,3.5
2023-10-11T02:06:04.416Z,3.5
2023-10-11T02:07:18.708Z,3.3
2023-10-11T02:08:33.001Z,3.5
2023-10-11T02:09:46.310Z,3.1
2023-10-11T02:11:00.603Z,3.1
2023-10-11T02:12:14.895Z,3.6
2023-10-11T02:13:29.188Z,3.5
2023-10-11T02:14:43.480Z,3.5
2023-10-11T02:15:57.773Z,3.3
2023-10-11T02:17:12.065Z,3.2
2023-10-11T02:18:26.358Z,3.4
2023-10-11T02:19:40.651Z,3.5
2023-10-11T02:20:54.944Z,3.6
2023-10-11T02:22:09.236Z,3
2023-10-11T02:23:23.529Z,3.4
2023-10-11T02:24:37.821Z,3.3
2023-10-11T02:25:51.130Z,3.5
2023-10-11T02:27:05.423Z,3.2
2023-10-11T02:28:19.715Z,3.5
2023-10-11T02:29:34.008Z,3.3
2023-10-11T02:30:48.301Z,3.4
2023-10-11T02:32:02.593Z,3.3
2023-10-11T02:33:15.907Z,3.5
2023-10-11T02:34:30.200Z,3.4
2023-10-11T02:35:44.492Z,3.3
2023-10-11T02:36:58.785Z,3.5
2023-10-11T02:38:13.077Z,3.5
2023-10-11T02:39:27.370Z,3.5
2023-10-11T02:40:41.662Z,3.4
2023-10-11T02:41:55.955Z,3.4
2023-10-11T02:43:10.248Z,3.5
2023-10-11T02:44:24.541Z,2.9
2023-10-11T02:45:38.833Z,3.4
2023-10-11T02:46:53.126Z,3.4
2023-10-11T02:48:07.418Z,3.3
2023-10-11T02:49:20.727Z,3.3
2023-10-11T02:50:35.020Z,3.7
2023-10-11T02:51:49.312Z,3.9
2023-10-11T02:53:03.605Z,3.4
2023-10-11T02:54:17.898Z,3.6
2023-10-11T02:55:32.190Z,3.6
2023-10-11T02:56:46.483Z,3.8
2023-10-11T02:58:00.776Z,3.8
2023-10-11T02:59:15.044Z,3.5
2023-10-11T03:00:29.362Z,3.8
2023-10-11T03:01:43.654Z,3.6
2023-10-11T03:02:57.947Z,3.5
2023-10-11T03:04:12.240Z,3.5
2023-10-11T03:05:25.548Z,3.6
2023-10-11T03:06:39.841Z,3.3
2023-10-11T03:07:54.134Z,3.5
2023-10-11T03:09:08.426Z,3.6
2023-10-11T03:10:22.719Z,3.5
2023-10-11T03:11:37.011Z,3.6
2023-10-11T03:12:51.304Z,3.5
2023-10-11T03:14:05.597Z,3.7
2023-10-11T03:15:19.889Z,3.6
2023-10-11T03:16:34.182Z,3.7
2023-10-11T03:17:48.475Z,3.6
2023-10-11T03:19:02.767Z,3.8
2023-10-11T03:20:17.060Z,3.5
2023-10-11T03:21:30.369Z,3.7
2023-10-11T03:22:44.661Z,3.5
2023-10-11T03:23:58.954Z,3.6
2023-10-11T03:25:13.247Z,3.7
2023-10-11T03:26:27.539Z,3.6
2023-10-11T03:27:41.832Z,3.5
2023-10-11T03:28:56.124Z,3.4
2023-10-11T03:30:10.417Z,3.5
2023-10-11T03:31:24.709Z,3.5
2023-10-11T03:32:39.002Z,3.6
2023-10-11T03:33:53.294Z,3.5
2023-10-11T03:35:07.587Z,3.5
2023-10-11T03:36:21.880Z,3.3
2023-10-11T03:37:35.189Z,3.8
2023-10-11T03:38:49.481Z,3.8
2023-10-11T03:40:03.774Z,3.6
2023-10-11T03:41:18.066Z,3.2
2023-10-11T03:42:32.359Z,3.7
2023-10-11T03:43:46.651Z,4.1
2023-10-11T03:45:00.944Z,3.8
2023-10-11T03:46:15.237Z,3.6
2023-10-11T03:47:29.529Z,3.6
2023-10-11T03:48:43.822Z,3.4
2023-10-11T03:49:58.115Z,3.3
2023-10-11T03:51:12.407Z,3.6
2023-10-11T03:52:26.700Z,3.7
2023-10-11T03:53:40.008Z,3.7
2023-10-11T03:54:54.301Z,3.6
2023-10-11T03:56:08.594Z,3.5
2023-10-11T03:57:22.886Z,3.7
2023-10-11T03:58:37.179Z,3.5
2023-10-11T03:59:51.472Z,3.6
2023-10-11T04:01:05.764Z,3.6
2023-10-11T04:02:20.057Z,3.2
2023-10-11T04:03:34.349Z,3.7
2023-10-11T04:04:48.642Z,3.5
2023-10-11T04:06:02.934Z,3.7
2023-10-11T04:07:17.227Z,3.3
2023-10-11T04:08:31.520Z,3.5
2023-10-11T04:09:44.829Z,3.7
2023-10-11T04:10:59.121Z,4
2023-10-11T04:12:13.414Z,3.5
2023-10-11T04:13:27.706Z,3.5
2023-10-11T04:14:41.999Z,3.3
2023-10-11T04:15:56.292Z,3.5
2023-10-11T04:17:10.584Z,3.4
2023-10-11T04:18:24.877Z,3.3
2023-10-11T04:19:39.170Z,3.6
2023-10-11T04:20:53.462Z,3.8
2023-10-11T04:22:07.755Z,3.6
2023-10-11T04:23:22.047Z,3.6
2023-10-11T04:24:36.321Z,3.3
2023-10-11T04:25:49.649Z,3.7
2023-10-11T04:27:03.941Z,3.6
2023-10-11T04:28:18.234Z,3.5
2023-10-11T04:29:32.527Z,3.5
2023-10-11T04:30:46.819Z,3.7
2023-10-11T04:32:01.112Z,3.7
2023-10-11T04:33:15.404Z,3.8
2023-10-11T04:34:29.697Z,3.6
2023-10-11T04:35:43.989Z,3.7
2023-10-11T04:36:58.282Z,3.8
2023-10-11T04:38:12.575Z,3.9
2023-10-11T04:39:26.853Z,3.7
2023-10-11T04:40:41.160Z,3.5
2023-10-11T04:41:54.469Z,3.8
2023-10-11T04:43:08.761Z,3.5
2023-10-11T04:44:23.054Z,3.5
2023-10-11T04:45:37.347Z,3.8
2023-10-11T04:46:51.619Z,3.5
2023-10-11T04:48:05.932Z,3.7
2023-10-11T04:49:20.224Z,3.6
2023-10-11T04:50:34.517Z,3.7
2023-10-11T04:51:48.810Z,4.1
2023-10-11T04:53:03.102Z,3.7
2023-10-11T04:54:17.376Z,3.7
2023-10-11T04:55:31.688Z,3.6
2023-10-11T04:56:45.927Z,3.4
2023-10-11T04:57:59.236Z,3.4
2023-10-11T04:59:13.528Z,3.7
2023-10-11T05:00:27.778Z,4
2023-10-11T05:01:42.002Z,3.9
2023-10-11T05:02:56.255Z,4.2
2023-10-11T05:04:10.494Z,3.8
2023-10-11T05:05:24.733Z,3.6
2023-10-11T05:06:38.971Z,3.5
2023-10-11T05:07:53.210Z,3.4
2023-10-11T05:09:07.424Z,3.4
2023-10-11T05:10:21.687Z,3.7
2023-10-11T05:11:35.926Z,3.6
2023-10-11T05:12:50.165Z,3.6
2023-10-11T05:14:03.419Z,3.6
2023-10-11T05:15:17.658Z,3.7
2023-10-11T05:16:31.897Z,3.4
2023-10-11T05:17:46.135Z,3.8
2023-10-11T05:19:00.375Z,3.6
2023-10-11T05:20:14.614Z,3.6
2023-10-11T05:21:28.852Z,3.5
2023-10-11T05:22:43.091Z,3.4
2023-10-11T05:23:57.330Z,3.4
2023-10-11T05:25:11.568Z,3.5
2023-10-11T05:26:25.807Z,3.8
2023-10-11T05:27:40.045Z,3.5
2023-10-11T05:28:54.284Z,3.6
2023-10-11T05:30:07.539Z,3.4
2023-10-11T05:31:21.753Z,3.5
2023-10-11T05:32:36.016Z,3.6
2023-10-11T05:33:50.255Z,3.3
2023-10-11T05:35:04.494Z,3.8
2023-10-11T05:36:18.732Z,3.7
2023-10-11T05:37:32.971Z,3.6
2023-10-11T05:38:47.210Z,3.4
2023-10-11T05:40:01.448Z,3.5
2023-10-11T05:41:15.687Z,3.8
2023-10-11T05:42:29.926Z,3.7
2023-10-11T05:43:44.164Z,3.5
2023-10-11T05:44:58.403Z,3.6
2023-10-11T05:46:11.658Z,3.3
2023-10-11T05:47:25.896Z,3.9
2023-10-11T05:48:40.135Z,3.3
2023-10-11T05:49:54.374Z,3.4
2023-10-11T05:51:08.612Z,3.9
2023-10-11T05:52:22.851Z,3.1
2023-10-11T05:53:37.089Z,3.6
2023-10-11T05:54:51.328Z,3.2
2023-10-11T05:56:05.567Z,3.6
2023-10-11T05:57:19.806Z,3.5
2023-10-11T05:58:34.044Z,3.5
2023-10-11T05:59:48.283Z,3.3
2023-10-11T06:01:02.521Z,3.7
2023-10-11T06:02:15.776Z,3.1
2023-10-11T06:03:30.015Z,3.2
2023-10-11T06:04:44.253Z,3.3
2023-10-11T06:05:58.492Z,3.2
2023-10-11T06:07:12.731Z,3.5
2023-10-11T06:08:26.970Z,3.5
2023-10-11T06:09:41.208Z,3.1
2023-10-11T06:10:55.447Z,3.5
2023-10-11T06:12:09.686Z,3.3
2023-10-11T06:13:23.924Z,3.5
2023-10-11T06:14:38.163Z,3.4
2023-10-11T06:15:52.402Z,3.3
2023-10-11T06:17:06.640Z,3.4
2023-10-11T06:18:19.895Z,3.2
2023-10-11T06:19:34.135Z,3.5
2023-10-11T06:20:48.373Z,3.1
2023-10-11T06:22:02.612Z,3.4
2023-10-11T06:23:16.850Z,3.5
2023-10-11T06:24:31.089Z,3.3
2023-10-11T06:25:45.328Z,3.2
2023-10-11T06:26:59.567Z,3.3
2023-10-11T06:28:13.805Z,3.7
2023-10-11T06:29:28.044Z,3.4
2023-10-11T06:30:42.283Z,3.5
2023-10-11T06:31:56.522Z,3.3
2023-10-11T06:33:10.761Z,3.5
2023-10-11T06:34:24.015Z,3.4
2023-10-11T06:35:38.254Z,3.3
2023-10-11T06:36:52.492Z,3.2
2023-10-11T06:38:06.731Z,3.5
2023-10-11T06:39:20.970Z,3.6
2023-10-11T06:40:35.209Z,3.3
2023-10-11T06:41:48.469Z,3.9
2023-10-11T06:43:02.707Z,3.3
2023-10-11T06:44:16.946Z,3.4
2023-10-11T06:45:31.184Z,3.5
2023-10-11T06:46:45.423Z,3.4
2023-10-11T06:47:59.661Z,4.1
2023-10-11T06:49:13.900Z,3.6
2023-10-11T06:50:28.139Z,3.3
2023-10-11T06:51:42.378Z,3.3
2023-10-11T06:52:56.616Z,3.4
2023-10-11T06:54:10.855Z,3.3
2023-10-11T06:55:25.093Z,3.3
2023-10-11T06:56:39.332Z,3.4
2023-10-11T06:57:52.586Z,3.1
2023-10-11T06:59:06.825Z,3.5
2023-10-11T07:00:21.064Z,3.1
2023-10-11T07:01:35.302Z,3.3
2023-10-11T07:02:49.541Z,3.7
2023-10-11T07:04:03.780Z,3.2
2023-10-11T07:05:18.018Z,3.1
2023-10-11T07:06:32.257Z,3.2
2023-10-11T07:07:46.495Z,3.7
2023-10-11T07:09:00.734Z,3.5
2023-10-11T07:10:14.972Z,3.2
2023-10-11T07:11:29.211Z,3
2023-10-11T07:12:43.449Z,3.4
2023-10-11T07:13:56.704Z,3.2
2023-10-11T07:15:10.943Z,3.2
2023-10-11T07:16:25.181Z,3.3
2023-10-11T07:17:39.420Z,3.4
2023-10-11T07:18:53.658Z,2.9
2023-10-11T07:20:07.897Z,3
2023-10-11T07:21:22.136Z,3.1
2023-10-11T07:22:36.374Z,3.3
2023-10-11T07:23:50.613Z,3
2023-10-11T07:25:04.851Z,2.9
2023-10-11T07:26:19.090Z,3.3
2023-10-11T07:27:33.328Z,2.9
2023-10-11T07:28:47.567Z,3.1
2023-10-11T07:30:00.822Z,3.1
2023-10-11T07:31:15.060Z,3.1
2023-10-11T07:32:29.299Z,2.9
2023-10-11T07:33:43.538Z,3.1
2023-10-11T07:34:57.776Z,3
2023-10-11T07:36:12.015Z,3.3
2023-10-11T07:37:26.253Z,3.2
2023-10-11T07:38:40.492Z,3
2023-10-11T07:39:54.730Z,3.2
2023-10-11T07:41:08.969Z,3
2023-10-11T07:42:23.208Z,3
2023-10-11T07:43:37.446Z,3.2
2023-10-11T07:44:51.685Z,3
2023-10-11T07:46:04.939Z,3.3
2023-10-11T07:47:19.178Z,3.2
2023-10-11T07:48:33.417Z,3
2023-10-11T07:49:47.655Z,3.3
2023-10-11T07:51:01.894Z,3
2023-10-11T07:52:16.132Z,3.1
2023-10-11T07:53:30.371Z,3
2023-10-11T07:54:44.610Z,3
2023-10-11T07:55:58.848Z,2.9
2023-10-11T07:57:13.087Z,2.8
2023-10-11T07:58:27.325Z,3.3
2023-10-11T07:59:41.564Z,3
2023-10-11T08:00:55.802Z,2.9
2023-10-11T08:02:09.057Z,3.1
2023-10-11T08:03:23.296Z,3.1
2023-10-11T08:04:37.534Z,2.9
2023-10-11T08:05:51.773Z,3.3
2023-10-11T08:07:06.012Z,3.4
2023-10-11T08:08:20.250Z,2.9
2023-10-11T08:09:34.489Z,2.7
2023-10-11T08:10:48.727Z,3
2023-10-11T08:12:02.966Z,3.2
2023-10-11T08:13:17.204Z,2.8
2023-10-11T08:14:31.443Z,3.1
2023-10-11T08:15:45.683Z,2.7
2023-10-11T08:16:59.921Z,2.9
2023-10-11T08:18:13.176Z,3.1
2023-10-11T08:19:27.414Z,3.5
2023-10-11T08:20:41.653Z,2.8
2023-10-11T08:21:55.891Z,2.8
2023-10-11T08:23:10.130Z,3
2023-10-11T08:24:24.368Z,2.9
2023-10-11T08:25:38.607Z,3.1
2023-10-11T08:26:52.846Z,2.9
2023-10-11T08:28:07.084Z,2.9
2023-10-11T08:29:21.323Z,2.7
2023-10-11T08:30:35.561Z,3
2023-10-11T08:31:49.800Z,3
2023-10-11T08:33:04.038Z,2.8
2023-10-11T08:34:17.293Z,2.9
2023-10-11T08:35:31.531Z,2.8
2023-10-11T08:36:45.770Z,2.8
2023-10-11T08:38:00.009Z,3.3
2023-10-11T08:39:14.247Z,2.6
2023-10-11T08:40:28.486Z,3
2023-10-11T08:41:42.724Z,2.7
2023-10-11T08:42:56.963Z,3
2023-10-11T08:44:11.201Z,3
2023-10-11T08:45:25.440Z,2.7
2023-10-11T08:46:39.679Z,2.8
2023-10-11T08:47:53.917Z,3
2023-10-11T08:49:08.156Z,2.9
2023-10-11T08:50:21.411Z,2.8
2023-10-11T08:51:35.649Z,2.6
2023-10-11T08:52:49.888Z,2.9
2023-10-11T08:54:04.126Z,2.6
2023-10-11T08:55:18.365Z,2.7
2023-10-11T08:56:32.605Z,2.8
2023-10-11T08:57:46.844Z,2.7
2023-10-11T08:59:01.082Z,3
2023-10-11T09:00:15.321Z,2.9
2023-10-11T09:01:29.559Z,2.5
2023-10-11T09:02:43.798Z,2.8
2023-10-11T09:03:58.036Z,2.7
2023-10-11T09:05:12.275Z,2.9
2023-10-11T09:06:25.530Z,2.8
2023-10-11T09:07:39.768Z,2.8
2023-10-11T09:08:54.007Z,2.8
2023-10-11T09:10:08.246Z,2.9
2023-10-11T09:11:22.485Z,3.2
2023-10-11T09:12:36.723Z,3
2023-10-11T09:13:50.962Z,3.2
2023-10-11T09:15:05.200Z,2.9
2023-10-11T09:16:19.439Z,2.8
2023-10-11T09:17:33.677Z,3
2023-10-11T09:18:47.916Z,2.7
2023-10-11T09:20:02.155Z,2.7
2023-10-11T09:21:16.381Z,2.9
2023-10-11T09:22:29.648Z,2.9
2023-10-11T09:23:43.886Z,2.9
2023-10-11T09:24:58.125Z,3
2023-10-11T09:26:12.363Z,2.7
2023-10-11T09:27:26.602Z,2.9
2023-10-11T09:28:40.840Z,3
2023-10-11T09:29:55.079Z,3.1
2023-10-11T09:31:09.317Z,2.7
2023-10-11T09:32:23.556Z,2.6
2023-10-11T09:33:37.794Z,2.7
2023-10-11T09:34:52.033Z,3.3
2023-10-11T09:36:06.271Z,3
2023-10-11T09:37:20.510Z,3
2023-10-11T09:38:33.764Z,2.9
2023-10-11T09:39:48.003Z,2.8
2023-10-11T09:41:02.241Z,2.8
2023-10-11T09:42:16.464Z,3
2023-10-11T09:43:30.718Z,2.9
2023-10-11T09:44:44.958Z,2.9
2023-10-11T09:45:59.196Z,2.8
2023-10-11T09:47:13.435Z,2.9
2023-10-11T09:48:27.673Z,2.8
2023-10-11T09:49:41.912Z,2.7
2023-10-11T09:50:56.150Z,2.6
2023-10-11T09:52:10.389Z,2.7
2023-10-11T09:53:24.627Z,2.8
2023-10-11T09:54:37.882Z,2.8
2023-10-11T09:55:52.120Z,2.8
2023-10-11T09:57:06.359Z,3.1
2023-10-11T09:58:20.597Z,2.9
2023-10-11T09:59:34.836Z,2.9
2023-10-11T10:00:49.074Z,2.8
2023-10-11T10:02:03.313Z,2.6
2023-10-11T10:03:17.552Z,3.1
2023-10-11T10:04:31.790Z,2.7
2023-10-11T10:05:46.029Z,3
2023-10-11T10:07:00.267Z,3.1
2023-10-11T10:08:14.506Z,3.1
2023-10-11T10:09:28.744Z,2.7
2023-10-11T10:10:41.999Z,3
2023-10-11T10:11:56.237Z,2.5
2023-10-11T10:13:10.476Z,2.9
2023-10-11T10:14:24.715Z,3.6
2023-10-11T10:15:38.953Z,2.7
2023-10-11T10:16:53.192Z,2.6
2023-10-11T10:18:07.430Z,3.1
2023-10-11T10:19:21.669Z,2.6
2023-10-11T10:20:35.907Z,2.8
2023-10-11T10:21:50.146Z,3.1
2023-10-11T10:23:04.384Z,2.7
2023-10-11T10:24:18.623Z,2.7
2023-10-11T10:25:32.862Z,2.7
2023-10-11T10:26:46.116Z,2.9
2023-10-11T10:28:00.356Z,2.6
2023-10-11T10:29:14.594Z,2.6
2023-10-11T10:30:28.833Z,2.9
2023-10-11T10:31:43.071Z,2.7
2023-10-11T10:32:57.310Z,2.7
2023-10-11T10:34:11.549Z,2.9
2023-10-11T10:35:25.787Z,2.7
2023-10-11T10:36:40.026Z,3.3
2023-10-11T10:37:54.264Z,3
2023-10-11T10:39:08.503Z,2.8
2023-10-11T10:40:22.742Z,2.9
2023-10-11T10:41:36.980Z,2.7
2023-10-11T10:42:50.235Z,2.9
2023-10-11T10:44:04.473Z,3
2023-10-11T10:45:18.712Z,2.9
2023-10-11T10:46:32.951Z,2.8
2023-10-11T10:47:47.189Z,2.8
2023-10-11T10:49:01.428Z,3.1
2023-10-11T10:50:14.688Z,2.7
2023-10-11T10:51:28.926Z,2.5
2023-10-11T10:52:43.165Z,2.8
2023-10-11T10:53:57.403Z,2.9
2023-10-11T10:55:11.642Z,2.8
2023-10-11T10:56:25.881Z,2.9
2023-10-11T10:57:40.119Z,2.8
2023-10-11T10:58:54.358Z,2.8
2023-10-11T11:00:08.597Z,2.6
2023-10-11T11:01:22.835Z,2.4
2023-10-11T11:02:37.074Z,2.6
2023-10-11T11:03:51.312Z,2.6
2023-10-11T11:05:05.551Z,2.9
2023-10-11T11:06:18.805Z,2.7
2023-10-11T11:07:33.044Z,2.6
2023-10-11T11:08:47.283Z,2.6
2023-10-11T11:10:01.521Z,2.7
2023-10-11T11:11:15.760Z,2.5
2023-10-11T11:12:29.998Z,2.6
2023-10-11T11:13:44.237Z,2.8
2023-10-11T11:14:58.475Z,2.7
2023-10-11T11:16:12.714Z,2.8
2023-10-11T11:17:26.953Z,2.8
2023-10-11T11:18:41.191Z,2.9
2023-10-11T11:19:55.414Z,2.5
2023-10-11T11:21:09.668Z,2.7
2023-10-11T11:22:22.923Z,2.7
2023-10-11T11:23:37.162Z,2.9
2023-10-11T11:24:51.400Z,2.7
2023-10-11T11:26:05.639Z,2.9
2023-10-11T11:27:19.878Z,2.7
2023-10-11T11:28:34.117Z,2.7
2023-10-11T11:29:48.355Z,2.8
2023-10-11T11:31:02.594Z,2.7
2023-10-11T11:32:16.832Z,2.5
2023-10-11T11:33:31.071Z,2.4
2023-10-11T11:34:45.310Z,2.6
2023-10-11T11:35:59.548Z,2.7
2023-10-11T11:37:13.787Z,2.7
2023-10-11T11:38:27.042Z,2.5
2023-10-11T11:39:41.281Z,2.6
2023-10-11T11:40:55.519Z,2.7
2023-10-11T11:42:09.758Z,2.6
2023-10-11T11:43:23.996Z,2.8
2023-10-11T11:44:38.235Z,2.8
2023-10-11T11:45:52.473Z,2.8
2023-10-11T11:47:06.712Z,2.9
2023-10-11T11:48:20.951Z,2.6
2023-10-11T11:49:35.189Z,2.5
2023-10-11T11:50:49.428Z,2.7
2023-10-11T11:52:03.666Z,2.8
2023-10-11T11:53:17.905Z,2.8
2023-10-11T11:54:31.160Z,2.7
2023-10-11T11:55:45.398Z,2.8
2023-10-11T11:56:59.637Z,2.6
2023-10-11T11:58:13.876Z,2.4
2023-10-11T11:59:28.114Z,2.6
2023-10-11T12:00:42.353Z,2.5
2023-10-11T12:01:56.592Z,2.7
2023-10-11T12:03:10.830Z,2.8
2023-10-11T12:04:25.051Z,2.9
2023-10-11T12:05:39.308Z,2.7
2023-10-11T12:06:53.546Z,2.8
2023-10-11T12:08:07.785Z,2.5
2023-10-11T12:09:22.024Z,2.8
2023-10-11T12:10:35.278Z,2.8
2023-10-11T12:11:49.517Z,2.7
2023-10-11T12:13:03.756Z,2.8
2023-10-11T12:14:17.994Z,2.9
2023-10-11T12:15:32.233Z,2.8
2023-10-11T12:16:46.472Z,2.4
2023-10-11T12:18:00.711Z,2.6
2023-10-11T12:20:29.188Z,2.6
2023-10-11T12:21:43.409Z,2.4
2023-10-11T12:22:57.666Z,2.6
2023-10-11T12:24:11.905Z,3.2
2023-10-11T12:25:26.143Z,3
2023-10-11T12:26:39.398Z,2.8
2023-10-11T12:27:53.636Z,2.6
2023-10-11T12:29:07.875Z,2.6
2023-10-11T12:30:22.113Z,2.7
2023-10-11T12:31:36.352Z,3
2023-10-11T12:32:50.591Z,2.8
2023-10-11T12:34:04.829Z,2.7
2023-10-11T12:35:19.068Z,2.3
2023-10-11T12:36:33.306Z,2.5
2023-10-11T12:37:47.545Z,2.6
2023-10-11T12:39:01.784Z,2.7
2023-10-11T12:40:16.022Z,2.7
2023-10-11T12:41:30.261Z,2.8
2023-10-11T12:42:43.515Z,2.5
2023-10-11T12:43:57.754Z,2.5
2023-10-11T12:45:11.993Z,2.6
2023-10-11T12:46:26.231Z,2.4
2023-10-11T12:47:40.470Z,2.8
2023-10-11T12:48:54.708Z,2.3
2023-10-11T12:50:08.947Z,2.7
2023-10-11T12:51:23.186Z,2.7
2023-10-11T12:52:37.424Z,2.5
2023-10-11T12:53:51.663Z,2.5
2023-10-11T12:55:05.902Z,2.6
2023-10-11T12:56:20.140Z,2.6
2023-10-11T12:57:34.379Z,2.3
2023-10-11T12:58:47.633Z,2.5
2023-10-11T13:00:01.872Z,2.5
2023-10-11T13:01:16.110Z,2.5
2023-10-11T13:02:30.349Z,2.4
2023-10-11T13:03:44.589Z,2.3
2023-10-11T13:04:58.827Z,2.5
2023-10-11T13:06:13.066Z,2.4
2023-10-11T13:07:27.304Z,2.6
2023-10-11T13:08:41.543Z,2.5
2023-10-11T13:09:55.782Z,2.5
2023-10-11T13:11:10.020Z,2.4
2023-10-11T13:12:24.259Z,2.5
2023-10-11T13:13:38.497Z,2.5
2023-10-11T13:14:51.752Z,2.3
2023-10-11T13:16:05.991Z,2.6
2023-10-11T13:17:20.229Z,2.4
2023-10-11T13:18:34.468Z,2.6
2023-10-11T13:19:48.707Z,2.4
2023-10-11T13:21:02.945Z,2.4
2023-10-11T13:22:17.184Z,2.5
2023-10-11T13:23:31.422Z,2.5
2023-10-11T13:24:45.661Z,2.7
2023-10-11T13:25:59.900Z,2.5
2023-10-11T13:27:14.138Z,2.4
2023-10-11T13:28:28.377Z,2.6
2023-10-11T13:29:42.615Z,2.3
2023-10-11T13:30:55.870Z,2.7
2023-10-11T13:32:10.110Z,2.5
2023-10-11T13:33:24.348Z,2.5
2023-10-11T13:34:38.587Z,2.8
2023-10-11T13:35:52.825Z,2.4
2023-10-11T13:37:07.040Z,2.5
2023-10-11T13:38:21.303Z,2.3
2023-10-11T13:39:35.541Z,3.1
2023-10-11T13:40:49.780Z,2.3
2023-10-11T13:42:04.018Z,2.4
2023-10-11T13:43:18.257Z,2.7
2023-10-11T13:44:32.496Z,2.5
2023-10-11T13:45:46.734Z,2.2
2023-10-11T13:46:59.989Z,2.6
2023-10-11T13:48:14.228Z,2.6
2023-10-11T13:49:28.466Z,2.6
2023-10-11T13:50:42.705Z,2.5
2023-10-11T13:51:56.944Z,2.7
2023-10-11T13:53:11.182Z,2.5
2023-10-11T13:54:25.421Z,2.7
2023-10-11T13:55:39.659Z,2.7
2023-10-11T13:56:53.898Z,2.3
2023-10-11T13:58:08.137Z,2.5
2023-10-11T13:59:22.375Z,2.6
2023-10-11T14:00:36.615Z,2.7
2023-10-11T14:01:50.853Z,2.5
2023-10-11T14:03:04.108Z,2.7
2023-10-11T14:04:18.347Z,2.6
2023-10-11T14:05:32.585Z,2.7
2023-10-11T14:06:46.824Z,2.5
2023-10-11T14:08:01.062Z,2.7
2023-10-11T14:09:15.301Z,2.8
2023-10-11T14:10:29.540Z,2.8
2023-10-11T14:11:43.779Z,2.6
2023-10-11T14:12:58.017Z,2.7
2023-10-11T14:14:12.228Z,2.5
2023-10-11T14:15:26.494Z,2.6
2023-10-11T14:16:40.707Z,2.5
2023-10-11T14:17:54.971Z,2.3
2023-10-11T14:19:08.226Z,2.3
2023-10-11T14:20:22.465Z,2.7
2023-10-11T14:21:36.704Z,2.8
2023-10-11T14:22:50.942Z,2.7
2023-10-11T14:24:05.181Z,2.7
2023-10-11T14:25:19.420Z,2.6
2023-10-11T14:26:33.658Z,2.6
2023-10-11T14:27:47.897Z,2.8
2023-10-11T14:29:02.135Z,2.9
2023-10-11T14:30:16.374Z,2.7
2023-10-11T14:31:30.613Z,2.6
2023-10-11T14:32:44.851Z,2.8
2023-10-11T14:33:59.090Z,2.7
2023-10-11T14:35:12.345Z,2.6
2023-10-11T14:36:26.583Z,2.7
2023-10-11T14:37:40.822Z,2.4
2023-10-11T14:38:55.060Z,2.7
2023-10-11T14:40:09.299Z,2.6
2023-10-11T14:41:23.538Z,2.7
2023-10-11T14:42:37.777Z,2.5
2023-10-11T14:43:52.015Z,2.3
2023-10-11T14:45:06.254Z,2.9
2023-10-11T14:46:20.492Z,2.4
2023-10-11T14:47:34.731Z,2.5
2023-10-11T14:48:48.970Z,2.6
2023-10-11T14:50:03.209Z,2.5
2023-10-11T14:51:16.464Z,2.6
2023-10-11T14:52:30.703Z,2.8
2023-10-11T14:53:44.941Z,2.9
2023-10-11T14:54:59.180Z,3
2023-10-11T14:56:13.418Z,2.4
2023-10-11T14:57:27.657Z,2.6
2023-10-11T14:58:40.917Z,2.6
2023-10-11T14:59:55.155Z,2.5
2023-10-11T15:01:09.394Z,2.7
2023-10-11T15:02:23.632Z,2.6
2023-10-11T15:03:37.871Z,2.6
2023-10-11T15:04:52.110Z,2.6
2023-10-11T15:06:06.348Z,2.6
2023-10-11T15:07:20.587Z,2.6
2023-10-11T15:08:34.825Z,2.6
2023-10-11T15:09:49.064Z,2.8
2023-10-11T15:11:03.302Z,2.7
2023-10-11T15:12:17.541Z,2.8
2023-10-11T15:13:31.780Z,2.7
2023-10-11T15:14:45.034Z,2.9
2023-10-11T15:15:59.273Z,2.6
2023-10-11T15:17:13.511Z,2.7
2023-10-11T15:18:27.750Z,2.7
2023-10-11T15:19:41.989Z,2.5
2023-10-11T15:20:56.227Z,2.9
2023-10-11T15:22:10.465Z,2.6
2023-10-11T15:23:24.704Z,2.8
2023-10-11T15:24:38.943Z,2.6
2023-10-11T15:25:53.181Z,2.7
2023-10-11T15:27:07.420Z,2.7
2023-10-11T15:28:21.659Z,2.8
2023-10-11T15:29:35.884Z,2.7
2023-10-11T15:30:49.152Z,2.6
2023-10-11T15:32:03.391Z,2.8
2023-10-11T15:33:17.629Z,2.8
2023-10-11T15:34:31.867Z,2.5
2023-10-11T15:35:46.106Z,2.5
2023-10-11T15:37:00.345Z,2.7
2023-10-11T15:38:14.583Z,2.6
2023-10-11T15:40:43.060Z,2.6
2023-10-11T15:41:57.298Z,2.7
2023-10-11T15:43:11.537Z,3
2023-10-11T15:44:25.775Z,2.9
2023-10-11T15:45:40.014Z,2.5
2023-10-11T15:46:53.269Z,2.6
2023-10-11T15:48:07.507Z,2.6
2023-10-11T15:49:21.746Z,2.7
2023-10-11T15:50:35.984Z,2.7
2023-10-11T15:51:50.223Z,2.7
2023-10-11T15:53:04.461Z,2.5
2023-10-11T15:54:18.700Z,2.5
2023-10-11T15:55:32.938Z,2.8
2023-10-11T15:56:47.177Z,2.5
2023-10-11T15:58:01.415Z,2.6
2023-10-11T15:59:15.654Z,2.5
2023-10-11T16:00:29.892Z,2.7
2023-10-11T16:01:44.131Z,2.5
2023-10-11T16:02:57.386Z,2.9
2023-10-11T16:04:11.624Z,2.6
2023-10-11T16:05:25.862Z,2.5
2023-10-11T16:06:40.101Z,2.6
2023-10-11T16:07:54.340Z,2.5
2023-10-11T16:09:08.578Z,2.4
2023-10-11T16:10:22.816Z,2.7
2023-10-11T16:11:37.055Z,2.5
2023-10-11T16:12:51.293Z,2.5
2023-10-11T16:14:05.532Z,2.3
2023-10-11T16:15:19.770Z,2.9
2023-10-11T16:16:34.009Z,2.6
2023-10-11T16:17:48.248Z,2.7
2023-10-11T16:19:01.502Z,2.6
2023-10-11T16:20:15.741Z,3
2023-10-11T16:21:29.979Z,2.7
2023-10-11T16:22:44.218Z,2.9
2023-10-11T16:23:58.456Z,2.9
2023-10-11T16:25:12.695Z,2.9
2023-10-11T16:26:26.933Z,2.7
2023-10-11T16:27:41.171Z,2.7
2023-10-11T16:28:55.410Z,2.5
2023-10-11T16:30:09.649Z,2.7
2023-10-11T16:31:23.887Z,2.8
2023-10-11T16:32:38.126Z,2.7
2023-10-11T16:33:52.364Z,2.8
2023-10-11T16:35:05.619Z,2.6
2023-10-11T16:36:19.844Z,3.5
2023-10-11T16:37:34.096Z,2.8
2023-10-11T16:38:48.335Z,3
2023-10-11T16:40:02.574Z,2.9
2023-10-11T16:41:16.812Z,2.6
2023-10-11T16:42:31.051Z,2.5
2023-10-11T16:43:45.289Z,2.9
2023-10-11T16:44:59.528Z,2.5
2023-10-11T16:46:13.767Z,2.8
2023-10-11T16:47:28.005Z,2.7
2023-10-11T16:48:42.245Z,2.5
2023-10-11T16:49:56.484Z,2.8
2023-10-11T16:51:10.722Z,2.5
2023-10-11T16:52:23.977Z,2.6
2023-10-11T16:53:38.215Z,2.5
2023-10-11T16:54:52.508Z,2.5
2023-10-11T16:56:06.801Z,5.5
2023-10-11T16:57:21.094Z,3.4
2023-10-11T16:58:35.386Z,2.8
2023-10-11T16:59:49.679Z,3.1
2023-10-11T17:01:03.972Z,2.5
2023-10-11T17:02:18.264Z,3
2023-10-11T17:03:32.557Z,2.9
2023-10-11T17:04:46.849Z,3.2
2023-10-11T17:06:01.142Z,2.9
2023-10-11T17:07:15.434Z,2.7
2023-10-11T17:08:28.743Z,2.9